Time;durP1;ratioP1;P1;durP2;ratioP2;P2;SDS_P1;SDS_P2;PMS_P1;PMS_P2;Temp;Humidity;BMP_temperature;BMP_pressure;BME280_temperature;BME280_humidity;BME280_pressure;Samples;Min_cycle;Max_cycle;Signal;HPM_P1;HPM_P2
2022/03/12 00:00:48;;;;;;;34.35;20.08;;;;;;;;;;5067757;28;20056;-72
2022/03/12 00:03:14;;;;;;;34.67;20.58;;;;;;;;;;5066738;28;20044;-72
2022/03/12 00:05:52;;;;;;;34.80;19.98;;;;;;;;;;5067869;28;20028;-71
2022/03/12 00:08:21;;;;;;;32.50;19.75;;;;;;;;;;5059245;28;20036;-72
2022/03/12 00:10:49;;;;;;;30.40;18.17;;;;;;;;;;5066560;28;20070;-72
2022/03/12 00:13:15;;;;;;;31.65;20.30;;;;;;;;;;5067224;28;20074;-72
2022/03/12 00:15:41;;;;;;;27.02;13.23;;;;;;;;;;5068057;28;20424;-72
2022/03/12 00:18:09;;;;;;;21.15;13.15;;;;;;;;;;5062696;28;20040;-72
2022/03/12 00:20:36;;;;;;;17.80;11.20;;;;;;;;;;5067579;28;20028;-72
2022/03/12 00:23:02;;;;;;;22.83;14.65;;;;;;;;;;5067118;28;20024;-72
2022/03/12 00:25:29;;;;;;;21.48;12.95;;;;;;;;;;5066713;28;20025;-73
2022/03/12 00:27:55;;;;;;;20.77;12.00;;;;;;;;;;5066689;28;20039;-72
2022/03/12 00:30:24;;;;;;;15.95;9.70;;;;;;;;;;5055445;28;20043;-72
2022/03/12 00:32:52;;;;;;;15.20;9.68;;;;;;;;;;5066470;28;20025;-72
2022/03/12 00:35:20;;;;;;;23.80;12.55;;;;;;;;;;5066674;28;20487;-72
2022/03/12 00:37:46;;;;;;;19.88;12.25;;;;;;;;;;5067629;28;20038;-72
2022/03/12 00:40:14;;;;;;;22.10;14.38;;;;;;;;;;5066870;28;20817;-72
2022/03/12 00:42:41;;;;;;;25.65;13.90;;;;;;;;;;5059607;28;20119;-72
2022/03/12 00:45:07;;;;;;;26.25;14.38;;;;;;;;;;5066863;28;20032;-72
2022/03/12 00:47:33;;;;;;;24.08;15.27;;;;;;;;;;5067424;28;20120;-72
2022/03/12 00:49:59;;;;;;;29.67;15.00;;;;;;;;;;5066707;28;20032;-72
2022/03/12 00:52:25;;;;;;;23.63;15.63;;;;;;;;;;5067587;28;20055;-72
2022/03/12 00:54:51;;;;;;;24.85;15.10;;;;;;;;;;5066293;28;20476;-72
2022/03/12 00:57:17;;;;;;;24.75;16.15;;;;;;;;;;5066369;28;20040;-72
2022/03/12 00:59:44;;;;;;;25.92;15.52;;;;;;;;;;5069961;28;20036;-72
2022/03/12 01:02:16;;;;;;;22.73;14.15;;;;;;;;;;5068214;28;20543;-72
2022/03/12 01:04:43;;;;;;;25.65;14.85;;;;;;;;;;5067816;28;20025;-72
2022/03/12 01:07:10;;;;;;;23.27;13.65;;;;;;;;;;5071054;28;20680;-72
2022/03/12 01:09:36;;;;;;;21.23;12.13;;;;;;;;;;5068691;28;20422;-72
2022/03/12 01:12:02;;;;;;;17.10;10.68;;;;;;;;;;5070487;28;20040;-72
2022/03/12 01:14:29;;;;;;;18.05;10.85;;;;;;;;;;5070359;28;20024;-72
2022/03/12 01:17:00;;;;;;;21.65;11.85;;;;;;;;;;5070121;28;20425;-72
2022/03/12 01:19:27;;;;;;;18.65;10.95;;;;;;;;;;5066873;28;20093;-72
2022/03/12 01:21:53;;;;;;;17.70;11.68;;;;;;;;;;5064043;28;20036;-72
2022/03/12 01:24:20;;;;;;;19.67;12.07;;;;;;;;;;5070125;28;20035;-72
2022/03/12 01:26:46;;;;;;;17.05;10.13;;;;;;;;;;5069491;28;20036;-72
2022/03/12 01:29:12;;;;;;;25.83;14.10;;;;;;;;;;5070189;28;20037;-72
2022/03/12 01:31:38;;;;;;;22.25;13.45;;;;;;;;;;5069621;28;20028;-72
2022/03/12 01:34:04;;;;;;;18.73;11.80;;;;;;;;;;5070381;28;20075;-72
2022/03/12 01:36:31;;;;;;;19.38;12.07;;;;;;;;;;5069661;28;20086;-72
2022/03/12 01:38:58;;;;;;;17.33;11.10;;;;;;;;;;5070089;28;20036;-72
2022/03/12 01:41:25;;;;;;;17.05;10.25;;;;;;;;;;5062400;28;20111;-72
2022/03/12 01:43:53;;;;;;;19.52;11.10;;;;;;;;;;5062392;28;20090;-72
2022/03/12 01:46:23;;;;;;;24.42;14.10;;;;;;;;;;5064651;28;20079;-73
2022/03/12 01:48:51;;;;;;;31.27;17.05;;;;;;;;;;5069719;28;20036;-72
2022/03/12 01:51:17;;;;;;;27.08;16.08;;;;;;;;;;5066443;28;20024;-72
2022/03/12 01:53:43;;;;;;;26.30;13.48;;;;;;;;;;5065241;28;20037;-72
2022/03/12 01:56:10;;;;;;;24.67;13.43;;;;;;;;;;5068777;28;20033;-72
2022/03/12 01:58:36;;;;;;;22.90;11.75;;;;;;;;;;5070052;28;20098;-72
2022/03/12 02:01:03;;;;;;;18.63;10.52;;;;;;;;;;5069427;28;20496;-72
2022/03/12 02:03:29;;;;;;;20.58;11.27;;;;;;;;;;5068383;28;20531;-72
2022/03/12 02:05:59;;;;;;;23.70;12.15;;;;;;;;;;5069674;28;20410;-72
2022/03/12 02:08:25;;;;;;;16.95;8.95;;;;;;;;;;5058633;28;20426;-72
2022/03/12 02:10:56;;;;;;;18.35;9.30;;;;;;;;;;5069034;28;20053;-72
2022/03/12 02:13:24;;;;;;;15.38;8.77;;;;;;;;;;5059646;28;20082;-72
2022/03/12 02:15:50;;;;;;;15.27;9.50;;;;;;;;;;5069587;28;20048;-72
2022/03/12 02:18:16;;;;;;;13.95;9.45;;;;;;;;;;5068348;28;20037;-72
2022/03/12 02:20:42;;;;;;;20.33;11.90;;;;;;;;;;5069421;28;20090;-72
2022/03/12 02:23:08;;;;;;;17.08;10.38;;;;;;;;;;5067877;28;20034;-72
2022/03/12 02:25:35;;;;;;;16.08;11.45;;;;;;;;;;5069106;28;20115;-73
2022/03/12 02:28:02;;;;;;;18.08;11.07;;;;;;;;;;5068391;28;20070;-72
2022/03/12 02:30:36;;;;;;;15.27;10.00;;;;;;;;;;5069115;28;20130;-72
2022/03/12 02:33:03;;;;;;;17.38;11.13;;;;;;;;;;5068252;28;20021;-72
2022/03/12 02:35:34;;;;;;;20.80;11.27;;;;;;;;;;5069155;28;20025;-72
2022/03/12 02:38:01;;;;;;;17.52;10.93;;;;;;;;;;5066716;28;20029;-73
2022/03/12 02:40:27;;;;;;;20.10;11.65;;;;;;;;;;5069061;28;20070;-72
2022/03/12 02:42:56;;;;;;;17.58;11.48;;;;;;;;;;5067785;28;20457;-72
2022/03/12 02:45:23;;;;;;;19.33;11.93;;;;;;;;;;5068838;28;20109;-72
2022/03/12 02:47:49;;;;;;;23.42;13.82;;;;;;;;;;5057356;28;20036;-72
2022/03/12 02:50:16;;;;;;;20.95;14.02;;;;;;;;;;5068015;28;20047;-72
2022/03/12 02:52:44;;;;;;;26.98;17.17;;;;;;;;;;5068623;28;20039;-72
2022/03/12 02:55:15;;;;;;;25.63;15.82;;;;;;;;;;5061220;28;20375;-72
2022/03/12 02:57:43;;;;;;;24.33;16.13;;;;;;;;;;5068652;28;20040;-73
2022/03/12 03:00:10;;;;;;;25.05;15.30;;;;;;;;;;5068075;28;20309;-72
2022/03/12 03:02:39;;;;;;;28.27;17.45;;;;;;;;;;5068492;28;20032;-72
2022/03/12 03:05:14;;;;;;;24.42;16.00;;;;;;;;;;5060811;28;20037;-72
2022/03/12 03:07:41;;;;;;;25.38;15.57;;;;;;;;;;5068876;28;20032;-72
2022/03/12 03:10:08;;;;;;;25.63;17.05;;;;;;;;;;5067582;28;20064;-72
2022/03/12 03:12:35;;;;;;;26.95;17.50;;;;;;;;;;5068327;28;20028;-72
2022/03/12 03:15:01;;;;;;;32.72;18.00;;;;;;;;;;5056108;28;20102;-72
2022/03/12 03:17:28;;;;;;;27.27;16.77;;;;;;;;;;5067212;28;20064;-72
2022/03/12 03:19:55;;;;;;;29.02;16.85;;;;;;;;;;5060918;28;20029;-73
2022/03/12 03:22:21;;;;;;;24.27;16.48;;;;;;;;;;5048695;28;20029;-72
2022/03/12 03:24:47;;;;;;;27.88;16.42;;;;;;;;;;5050984;28;20040;-72
2022/03/12 03:27:13;;;;;;;26.17;16.67;;;;;;;;;;5068345;28;20043;-72
2022/03/12 03:29:39;;;;;;;22.75;14.85;;;;;;;;;;5067180;28;20414;-72
2022/03/12 03:32:05;;;;;;;25.00;14.45;;;;;;;;;;5068308;28;20039;-72
2022/03/12 03:34:32;;;;;;;25.73;15.10;;;;;;;;;;5067842;28;20510;-72
2022/03/12 03:36:58;;;;;;;26.30;16.10;;;;;;;;;;5048964;28;20055;-72
2022/03/12 03:39:24;;;;;;;23.40;12.98;;;;;;;;;;5065710;28;20039;-72
2022/03/12 03:41:50;;;;;;;25.48;14.02;;;;;;;;;;5067801;28;20045;-72
2022/03/12 03:44:20;;;;;;;18.13;11.40;;;;;;;;;;5067903;28;20040;-72
2022/03/12 03:46:46;;;;;;;21.08;12.10;;;;;;;;;;5062794;28;20052;-72
2022/03/12 03:49:12;;;;;;;20.20;11.90;;;;;;;;;;5068085;28;20064;-72
2022/03/12 03:51:42;;;;;;;20.95;12.23;;;;;;;;;;5066955;28;20052;-72
2022/03/12 03:54:09;;;;;;;21.20;13.55;;;;;;;;;;5068033;28;20043;-72
2022/03/12 03:56:35;;;;;;;36.45;20.55;;;;;;;;;;5066955;28;20036;-72
2022/03/12 03:59:02;;;;;;;23.52;15.55;;;;;;;;;;5067971;28;20042;-72
2022/03/12 04:01:28;;;;;;;30.90;19.15;;;;;;;;;;5066613;28;20040;-72
2022/03/12 04:03:54;;;;;;;24.70;14.40;;;;;;;;;;5067953;28;20125;-72
2022/03/12 04:06:21;;;;;;;20.73;13.38;;;;;;;;;;5062163;28;20041;-72
2022/03/12 04:08:47;;;;;;;21.75;12.23;;;;;;;;;;5066401;28;20033;-72
2022/03/12 04:11:33;;;;;;;22.77;12.70;;;;;;;;;;5061935;28;20492;-72
2022/03/12 04:13:59;;;;;;;23.80;13.00;;;;;;;;;;5064790;28;20459;-72
2022/03/12 04:16:25;;;;;;;20.38;11.73;;;;;;;;;;5066154;28;20024;-72
2022/03/12 04:18:51;;;;;;;19.17;9.95;;;;;;;;;;5065616;28;20063;-72
2022/03/12 04:21:18;;;;;;;17.00;10.38;;;;;;;;;;5067663;28;20055;-72
2022/03/12 04:23:45;;;;;;;17.67;9.93;;;;;;;;;;5067821;28;20032;-72
2022/03/12 04:26:12;;;;;;;21.67;12.32;;;;;;;;;;5063841;28;20399;-72
2022/03/12 04:28:38;;;;;;;72.45;35.33;;;;;;;;;;5058224;28;20048;-72
2022/03/12 04:31:06;;;;;;;62.55;29.23;;;;;;;;;;5066489;28;20790;-72
2022/03/12 04:33:32;;;;;;;56.40;29.10;;;;;;;;;;5053128;28;20068;-72
2022/03/12 04:35:59;;;;;;;48.17;24.98;;;;;;;;;;5066291;28;20040;-72
2022/03/12 04:38:25;;;;;;;23.50;12.48;;;;;;;;;;5070669;28;20036;-72
2022/03/12 04:40:53;;;;;;;39.78;19.00;;;;;;;;;;5071665;28;20028;-72
2022/03/12 04:43:19;;;;;;;23.90;13.40;;;;;;;;;;5067096;28;20070;-72
2022/03/12 04:45:46;;;;;;;14.40;8.27;;;;;;;;;;5069897;28;20032;-72
2022/03/12 04:48:16;;;;;;;13.55;6.38;;;;;;;;;;5070367;28;20309;-72
2022/03/12 04:50:42;;;;;;;18.83;13.45;;;;;;;;;;5063779;28;20032;-72
2022/03/12 04:53:08;;;;;;;24.60;13.70;;;;;;;;;;5066783;28;20028;-72
2022/03/12 04:55:38;;;;;;;17.98;10.13;;;;;;;;;;5065978;28;20056;-72
2022/03/12 04:58:04;;;;;;;13.13;7.53;;;;;;;;;;5070815;28;20055;-72
2022/03/12 05:00:31;;;;;;;15.25;8.50;;;;;;;;;;5070219;28;20112;-72
2022/03/12 05:03:04;;;;;;;18.83;8.85;;;;;;;;;;5070708;28;20028;-72
2022/03/12 05:05:30;;;;;;;15.27;9.13;;;;;;;;;;5069560;28;20040;-72
2022/03/12 05:07:59;;;;;;;16.73;9.13;;;;;;;;;;5070814;28;20046;-72
2022/03/12 05:10:29;;;;;;;16.02;10.15;;;;;;;;;;5069922;28;20043;-72
2022/03/12 05:13:00;;;;;;;18.45;11.20;;;;;;;;;;5067569;28;20466;-72
2022/03/12 05:15:31;;;;;;;20.83;10.77;;;;;;;;;;5069480;28;20490;-72
2022/03/12 05:17:58;;;;;;;22.35;11.60;;;;;;;;;;5070946;28;20674;-72
2022/03/12 05:20:25;;;;;;;23.20;12.32;;;;;;;;;;5069280;28;20044;-73
2022/03/12 05:22:51;;;;;;;21.83;11.23;;;;;;;;;;5067244;28;20093;-72
2022/03/12 05:25:19;;;;;;;20.40;12.23;;;;;;;;;;5065238;28;20052;-72
2022/03/12 05:27:54;;;;;;;21.25;11.45;;;;;;;;;;5070760;28;20032;-72
2022/03/12 05:30:21;;;;;;;20.40;11.38;;;;;;;;;;5063565;28;20048;-72
2022/03/12 05:32:47;;;;;;;20.98;12.20;;;;;;;;;;5066100;28;20028;-72
2022/03/12 05:35:15;;;;;;;18.70;12.15;;;;;;;;;;5066256;28;20652;-72
2022/03/12 05:37:41;;;;;;;22.35;12.13;;;;;;;;;;5061868;28;20116;-73
2022/03/12 05:40:09;;;;;;;21.70;12.98;;;;;;;;;;5068088;28;20601;-72
2022/03/12 05:42:35;;;;;;;23.98;13.18;;;;;;;;;;5068142;28;20048;-72
2022/03/12 05:45:09;;;;;;;22.55;14.70;;;;;;;;;;5069469;28;20067;-72
2022/03/12 05:47:36;;;;;;;26.23;15.02;;;;;;;;;;5068493;28;20032;-72
2022/03/12 05:50:03;;;;;;;23.27;14.20;;;;;;;;;;5070092;28;20513;-72
2022/03/12 05:52:29;;;;;;;26.35;14.85;;;;;;;;;;5062221;28;20078;-72
2022/03/12 05:54:55;;;;;;;24.67;15.63;;;;;;;;;;5069942;28;20028;-72
2022/03/12 05:57:21;;;;;;;25.10;15.57;;;;;;;;;;5063629;28;20111;-72
2022/03/12 05:59:49;;;;;;;24.27;14.90;;;;;;;;;;5069841;28;20108;-73
2022/03/12 06:02:16;;;;;;;23.13;13.90;;;;;;;;;;5068876;28;20036;-72
2022/03/12 06:04:42;;;;;;;27.10;13.65;;;;;;;;;;5069937;28;20788;-72
2022/03/12 06:07:09;;;;;;;23.02;13.63;;;;;;;;;;5069137;28;20071;-72
2022/03/12 06:09:35;;;;;;;22.27;13.50;;;;;;;;;;5069680;28;20124;-73
2022/03/12 06:12:02;;;;;;;23.20;14.93;;;;;;;;;;5069054;28;20562;-72
2022/03/12 06:14:30;;;;;;;28.13;15.75;;;;;;;;;;5069576;28;20033;-72
2022/03/12 06:16:56;;;;;;;26.00;15.07;;;;;;;;;;5064893;28;20090;-72
2022/03/12 06:19:23;;;;;;;26.73;14.82;;;;;;;;;;5068676;28;20040;-72
2022/03/12 06:21:49;;;;;;;24.55;14.90;;;;;;;;;;5067525;28;20025;-72
2022/03/12 06:24:15;;;;;;;24.38;15.07;;;;;;;;;;5069147;28;20494;-72
2022/03/12 06:26:44;;;;;;;23.02;15.60;;;;;;;;;;5068355;28;20028;-72
2022/03/12 06:29:14;;;;;;;26.52;15.23;;;;;;;;;;5065911;28;20136;-72
2022/03/12 06:31:40;;;;;;;29.60;16.60;;;;;;;;;;5068277;28;20091;-72
2022/03/12 06:34:09;;;;;;;25.23;15.88;;;;;;;;;;5068659;28;20039;-72
2022/03/12 06:36:35;;;;;;;23.77;14.93;;;;;;;;;;5062862;28;20032;-73
2022/03/12 06:39:01;;;;;;;25.02;15.02;;;;;;;;;;5067677;28;20040;-72
2022/03/12 06:41:28;;;;;;;23.88;14.25;;;;;;;;;;5068274;28;20029;-72
2022/03/12 06:43:55;;;;;;;23.55;13.90;;;;;;;;;;5067906;28;20047;-73
2022/03/12 06:46:22;;;;;;;29.35;15.27;;;;;;;;;;5064597;28;20040;-73
2022/03/12 06:48:48;;;;;;;23.52;14.73;;;;;;;;;;5067605;28;20089;-73
2022/03/12 06:51:14;;;;;;;24.38;14.63;;;;;;;;;;5068194;28;20032;-72
2022/03/12 06:53:40;;;;;;;24.50;15.73;;;;;;;;;;5067078;28;20115;-73
2022/03/12 06:56:07;;;;;;;23.67;14.32;;;;;;;;;;5067692;28;20495;-72
2022/03/12 06:58:34;;;;;;;27.88;15.02;;;;;;;;;;5062182;28;20067;-72
2022/03/12 07:01:00;;;;;;;29.40;15.43;;;;;;;;;;5068243;28;20745;-72
2022/03/12 07:03:26;;;;;;;25.00;15.32;;;;;;;;;;5067187;28;20041;-73
2022/03/12 07:05:52;;;;;;;26.27;16.73;;;;;;;;;;5068421;28;20033;-72
2022/03/12 07:08:19;;;;;;;21.42;14.88;;;;;;;;;;5067154;28;20032;-71
2022/03/12 07:10:49;;;;;;;22.67;14.73;;;;;;;;;;5067583;28;20032;-72
2022/03/12 07:13:16;;;;;;;24.45;16.05;;;;;;;;;;5067404;28;20051;-73
2022/03/12 07:15:42;;;;;;;28.13;14.98;;;;;;;;;;5067500;28;20392;-72
2022/03/12 07:18:08;;;;;;;24.85;16.38;;;;;;;;;;5067252;28;20097;-72
2022/03/12 07:20:34;;;;;;;27.55;15.75;;;;;;;;;;5065864;28;20037;-72
2022/03/12 07:23:00;;;;;;;27.42;15.88;;;;;;;;;;5067269;28;20071;-72
2022/03/12 07:25:27;;;;;;;26.23;15.55;;;;;;;;;;5063783;28;20637;-72
2022/03/12 07:27:54;;;;;;;28.35;16.40;;;;;;;;;;5067252;28;20032;-72
2022/03/12 07:30:21;;;;;;;24.67;15.73;;;;;;;;;;5060703;28;20055;-73
2022/03/12 07:32:48;;;;;;;25.05;16.52;;;;;;;;;;5064794;28;20051;-73
2022/03/12 07:35:15;;;;;;;25.50;16.02;;;;;;;;;;5059291;28;20070;-73
2022/03/12 07:37:42;;;;;;;41.53;24.38;;;;;;;;;;5067211;28;20032;-73
2022/03/12 07:40:09;;;;;;;36.95;22.45;;;;;;;;;;5062005;28;20037;-73
2022/03/12 07:42:35;;;;;;;49.13;27.25;;;;;;;;;;5063850;28;20414;-74
2022/03/12 07:45:01;;;;;;;32.45;18.00;;;;;;;;;;5063802;28;20047;-74
2022/03/12 07:47:28;;;;;;;29.58;16.52;;;;;;;;;;5066575;28;20044;-74
2022/03/12 07:49:54;;;;;;;29.40;17.27;;;;;;;;;;5064193;28;20031;-73
2022/03/12 07:52:20;;;;;;;24.55;15.30;;;;;;;;;;5066753;28;20040;-72
2022/03/12 07:54:46;;;;;;;25.15;15.35;;;;;;;;;;5067038;28;20027;-73
2022/03/12 07:57:13;;;;;;;23.08;13.57;;;;;;;;;;5066240;28;20036;-73
2022/03/12 07:59:39;;;;;;;23.95;13.40;;;;;;;;;;5067310;28;20039;-73
2022/03/12 08:02:06;;;;;;;20.75;12.52;;;;;;;;;;5066495;28;20525;-73
2022/03/12 08:04:33;;;;;;;20.17;10.88;;;;;;;;;;5063306;28;20029;-71
2022/03/12 08:07:02;;;;;;;26.38;14.45;;;;;;;;;;5061941;28;20374;-72
2022/03/12 08:09:31;;;;;;;15.77;10.48;;;;;;;;;;5068160;28;20534;-73
2022/03/12 08:11:57;;;;;;;16.65;10.95;;;;;;;;;;5067885;28;20036;-73
2022/03/12 08:14:23;;;;;;;15.35;9.43;;;;;;;;;;5062848;28;20040;-72
2022/03/12 08:16:51;;;;;;;16.40;10.60;;;;;;;;;;5068125;28;20064;-73
2022/03/12 08:19:17;;;;;;;18.38;9.65;;;;;;;;;;5066674;28;20043;-73
2022/03/12 08:21:44;;;;;;;14.70;9.05;;;;;;;;;;5067387;28;20035;-72
2022/03/12 08:24:12;;;;;;;15.38;9.23;;;;;;;;;;5066963;28;20103;-72
2022/03/12 08:26:41;;;;;;;16.27;9.02;;;;;;;;;;5058405;28;20035;-72
2022/03/12 08:29:09;;;;;;;16.02;10.10;;;;;;;;;;5067900;28;20020;-73
2022/03/12 08:31:36;;;;;;;16.30;9.57;;;;;;;;;;5060902;28;20024;-73
2022/03/12 08:34:02;;;;;;;16.90;9.52;;;;;;;;;;5067499;28;20028;-73
2022/03/12 08:36:28;;;;;;;17.33;9.38;;;;;;;;;;5063558;28;20338;-73
2022/03/12 08:38:54;;;;;;;14.02;9.25;;;;;;;;;;5058256;28;20037;-72
2022/03/12 08:41:21;;;;;;;14.75;8.30;;;;;;;;;;5059102;28;20081;-72
2022/03/12 08:43:48;;;;;;;17.92;9.32;;;;;;;;;;5069866;28;20485;-72
2022/03/12 08:46:14;;;;;;;12.10;8.05;;;;;;;;;;5069803;28;20684;-71
2022/03/12 08:48:40;;;;;;;14.15;9.60;;;;;;;;;;5065713;28;20029;-72
2022/03/12 08:51:07;;;;;;;13.18;9.00;;;;;;;;;;5067975;28;20032;-72
2022/03/12 08:53:33;;;;;;;13.07;8.35;;;;;;;;;;5068781;28;20046;-72
2022/03/12 08:56:00;;;;;;;13.50;9.23;;;;;;;;;;5068075;28;20443;-72
2022/03/12 08:58:26;;;;;;;14.02;8.65;;;;;;;;;;5067020;28;20024;-72
2022/03/12 09:00:53;;;;;;;14.13;8.98;;;;;;;;;;5068307;28;20733;-72
2022/03/12 09:03:20;;;;;;;12.82;9.13;;;;;;;;;;5066086;28;20035;-72
2022/03/12 09:05:46;;;;;;;16.13;8.48;;;;;;;;;;5068633;28;20040;-72
2022/03/12 09:08:13;;;;;;;15.43;9.18;;;;;;;;;;5065677;28;20465;-72
2022/03/12 09:10:39;;;;;;;13.38;8.73;;;;;;;;;;5064926;28;20064;-72
2022/03/12 09:13:06;;;;;;;13.20;8.75;;;;;;;;;;5059053;28;20558;-72
2022/03/12 09:15:36;;;;;;;13.45;8.13;;;;;;;;;;5072502;28;20048;-72
2022/03/12 09:18:02;;;;;;;11.77;7.78;;;;;;;;;;5069531;28;20154;-72
2022/03/12 09:20:28;;;;;;;13.68;8.38;;;;;;;;;;5061361;28;20056;-72
2022/03/12 09:22:54;;;;;;;13.18;8.75;;;;;;;;;;5067346;28;20562;-71
2022/03/12 09:25:20;;;;;;;12.65;8.05;;;;;;;;;;5069225;28;20055;-72
2022/03/12 09:27:46;;;;;;;12.30;7.97;;;;;;;;;;5070033;28;20032;-72
2022/03/12 09:30:14;;;;;;;13.90;8.57;;;;;;;;;;5075642;28;20704;-72
2022/03/12 09:32:40;;;;;;;16.23;8.63;;;;;;;;;;5065126;28;20028;-71
2022/03/12 09:35:07;;;;;;;11.93;8.13;;;;;;;;;;5068070;28;20039;-72
2022/03/12 09:37:33;;;;;;;12.63;8.02;;;;;;;;;;5070133;28;20070;-72
2022/03/12 09:40:00;;;;;;;14.07;8.07;;;;;;;;;;5071556;28;20044;-71
2022/03/12 09:42:30;;;;;;;13.63;8.93;;;;;;;;;;5070079;28;20048;-72
2022/03/12 09:44:56;;;;;;;15.68;9.00;;;;;;;;;;5068524;28;20036;-72
2022/03/12 09:47:22;;;;;;;13.52;9.02;;;;;;;;;;5067554;28;20036;-72
2022/03/12 09:49:48;;;;;;;13.10;9.05;;;;;;;;;;5068135;28;20060;-72
2022/03/12 09:52:15;;;;;;;16.40;9.25;;;;;;;;;;5067543;28;20086;-72
2022/03/12 09:54:41;;;;;;;13.32;8.10;;;;;;;;;;5069034;28;20177;-71
2022/03/12 09:57:07;;;;;;;15.95;8.60;;;;;;;;;;5068172;28;20037;-73
2022/03/12 09:59:33;;;;;;;18.42;8.82;;;;;;;;;;5067938;28;20040;-72
2022/03/12 10:02:00;;;;;;;13.02;8.40;;;;;;;;;;5066655;28;20039;-72
2022/03/12 10:04:26;;;;;;;14.93;8.43;;;;;;;;;;5067490;28;20036;-72
2022/03/12 10:06:53;;;;;;;11.82;7.57;;;;;;;;;;5067832;28;20123;-72
2022/03/12 10:09:19;;;;;;;14.57;8.40;;;;;;;;;;5067304;28;20068;-71
2022/03/12 10:11:45;;;;;;;13.95;8.68;;;;;;;;;;5067422;28;20036;-73
2022/03/12 10:14:12;;;;;;;13.43;8.38;;;;;;;;;;5064555;28;20021;-72
2022/03/12 10:16:43;;;;;;;12.55;8.60;;;;;;;;;;5059596;28;20033;-72
2022/03/12 10:19:10;;;;;;;12.68;7.68;;;;;;;;;;5065668;28;20636;-73
2022/03/12 10:21:42;;;;;;;11.68;7.75;;;;;;;;;;5062964;28;20120;-73
2022/03/12 10:24:08;;;;;;;;;;;;;;;;;;5060805;28;20032;-72
2022/03/12 10:26:38;;;;;;;14.48;9.63;;;;;;;;;;5056019;28;19920;-71
2022/03/12 10:29:04;;;;;;;15.10;9.07;;;;;;;;;;5058252;28;20025;-73
2022/03/12 10:31:30;;;;;;;14.55;8.20;;;;;;;;;;5062341;28;20067;-72
2022/03/12 10:34:17;;;;;;;16.20;9.15;;;;;;;;;;5060946;28;20146;-72
2022/03/12 10:36:43;;;;;;;12.63;8.27;;;;;;;;;;5060963;28;20050;-73
2022/03/12 10:39:10;;;;;;;14.30;8.40;;;;;;;;;;5060959;28;20085;-73
2022/03/12 10:41:37;;;;;;;14.18;8.70;;;;;;;;;;5069645;28;20482;-73
2022/03/12 10:44:04;;;;;;;13.88;8.48;;;;;;;;;;5069452;28;20040;-73
2022/03/12 10:46:30;;;;;;;13.45;8.65;;;;;;;;;;5065567;28;20150;-73
2022/03/12 10:48:58;;;;;;;10.63;7.47;;;;;;;;;;5069205;28;20028;-73
2022/03/12 10:51:28;;;;;;;11.85;7.68;;;;;;;;;;5066790;28;20028;-73
2022/03/12 10:54:04;;;;;;;12.52;8.00;;;;;;;;;;5067504;28;20100;-73
2022/03/12 10:56:42;;;;;;;13.10;8.10;;;;;;;;;;5068829;28;20032;-72
2022/03/12 10:59:16;;;;;;;12.98;7.85;;;;;;;;;;5067018;28;20036;-72
2022/03/12 11:01:45;;;;;;;13.55;8.77;;;;;;;;;;5064627;28;20037;-72
2022/03/12 11:04:26;;;;;;;12.30;8.32;;;;;;;;;;5068244;28;20132;-73
2022/03/12 11:06:54;;;;;;;14.65;8.90;;;;;;;;;;5062424;28;20025;-72
2022/03/12 11:09:40;;;;;;;12.15;7.93;;;;;;;;;;5061037;28;20125;-72
2022/03/12 11:12:28;;;;;;;13.82;8.63;;;;;;;;;;5058996;28;20029;-73
2022/03/12 11:15:06;;;;;;;12.10;8.00;;;;;;;;;;5066831;28;20445;-72
2022/03/12 11:17:41;;;;;;;14.80;8.32;;;;;;;;;;5066811;28;20043;-73
2022/03/12 11:20:08;;;;;;;13.80;8.32;;;;;;;;;;5055444;28;20039;-73
2022/03/12 11:22:34;;;;;;;14.93;8.55;;;;;;;;;;5058765;28;20514;-73
2022/03/12 11:25:00;;;;;;;13.95;8.60;;;;;;;;;;5068203;28;20525;-73
2022/03/12 11:27:33;;;;;;;11.55;7.80;;;;;;;;;;5066987;28;20036;-73
2022/03/12 11:30:04;;;;;;;12.85;8.50;;;;;;;;;;5068286;28;20082;-73
2022/03/12 11:32:34;;;;;;;22.90;8.02;;;;;;;;;;5066527;28;20506;-72
2022/03/12 11:35:06;;;;;;;11.18;7.72;;;;;;;;;;5067753;28;20032;-73
2022/03/12 11:37:36;;;;;;;11.85;7.15;;;;;;;;;;5067362;28;20406;-73
2022/03/12 11:40:03;;;;;;;13.18;7.65;;;;;;;;;;5065365;28;20036;-73
2022/03/12 11:42:33;;;;;;;13.13;8.35;;;;;;;;;;5061416;28;20052;-73
2022/03/12 11:45:01;;;;;;;12.48;8.40;;;;;;;;;;5067346;28;20047;-72
2022/03/12 11:47:27;;;;;;;12.40;8.65;;;;;;;;;;5067406;28;20044;-73
2022/03/12 11:49:55;;;;;;;13.05;7.50;;;;;;;;;;5053766;28;20040;-73
2022/03/12 11:52:21;;;;;;;16.67;8.93;;;;;;;;;;5064659;28;20039;-73
2022/03/12 11:54:48;;;;;;;13.48;8.02;;;;;;;;;;5055747;28;20036;-73
2022/03/12 11:57:24;;;;;;;13.32;7.80;;;;;;;;;;5062396;28;20058;-72
2022/03/12 11:59:50;;;;;;;10.55;7.05;;;;;;;;;;5067286;28;20086;-72
2022/03/12 12:02:32;;;;;;;14.32;7.50;;;;;;;;;;5064605;28;20390;-72
2022/03/12 12:05:10;;;;;;;11.98;7.18;;;;;;;;;;5060012;28;20128;-73
2022/03/12 12:07:36;;;;;;;11.45;7.82;;;;;;;;;;5067162;28;20036;-73
2022/03/12 12:10:04;;;;;;;12.90;7.35;;;;;;;;;;5068363;28;20040;-72
2022/03/12 12:12:34;;;;;;;10.15;6.55;;;;;;;;;;5066184;28;20029;-73
2022/03/12 12:15:03;;;;;;;11.00;7.38;;;;;;;;;;5054180;28;20406;-73
2022/03/12 12:17:31;;;;;;;11.13;7.15;;;;;;;;;;5067103;28;20028;-73
2022/03/12 12:19:57;;;;;;;13.48;7.85;;;;;;;;;;5066709;28;20074;-73
2022/03/12 12:22:23;;;;;;;11.38;7.20;;;;;;;;;;5066999;28;20063;-73
2022/03/12 12:24:52;;;;;;;15.30;8.20;;;;;;;;;;5066497;28;20037;-73
2022/03/12 12:27:23;;;;;;;12.45;8.88;;;;;;;;;;5067082;28;20131;-73
2022/03/12 12:29:55;;;;;;;13.02;8.98;;;;;;;;;;5066591;28;20031;-72
2022/03/12 12:32:26;;;;;;;12.65;8.70;;;;;;;;;;5067507;28;20028;-73
2022/03/12 12:35:04;;;;;;;14.85;8.80;;;;;;;;;;5066874;28;20170;-73
2022/03/12 12:37:39;;;;;;;14.68;9.10;;;;;;;;;;5067309;28;20479;-73
2022/03/12 12:40:14;;;;;;;11.63;7.68;;;;;;;;;;5066484;28;20032;-73
2022/03/12 12:42:42;;;;;;;13.98;8.05;;;;;;;;;;5066799;28;20437;-73
2022/03/12 12:45:11;;;;;;;16.20;9.25;;;;;;;;;;5058796;28;20033;-73
2022/03/12 12:47:37;;;;;;;12.85;8.95;;;;;;;;;;5064173;28;20036;-72
2022/03/12 12:50:04;;;;;;;17.00;10.32;;;;;;;;;;5053749;28;20036;-73
2022/03/12 12:52:31;;;;;;;23.88;8.43;;;;;;;;;;5066074;28;20035;-73
2022/03/12 12:54:59;;;;;;;15.90;9.82;;;;;;;;;;5069450;28;20075;-73
2022/03/12 12:57:39;;;;;;;13.68;8.60;;;;;;;;;;5070149;28;20482;-74
2022/03/12 13:00:32;;;;;;;15.88;9.27;;;;;;;;;;5069453;28;20086;-74
2022/03/12 13:02:58;;;;;;;13.02;8.38;;;;;;;;;;5059445;28;20064;-74
2022/03/12 13:05:41;;;;;;;13.60;8.55;;;;;;;;;;5067339;28;20044;-74
2022/03/12 13:08:07;;;;;;;14.63;10.00;;;;;;;;;;5069883;28;20598;-74
2022/03/12 13:10:33;;;;;;;15.43;8.85;;;;;;;;;;5069695;28;20036;-74
2022/03/12 13:13:09;;;;;;;15.27;8.48;;;;;;;;;;5069359;28;20558;-74
2022/03/12 13:15:39;;;;;;;13.70;8.60;;;;;;;;;;5069592;28;20029;-74
2022/03/12 13:18:31;;;;;;;13.43;9.25;;;;;;;;;;5068777;28;20071;-74
2022/03/12 13:20:57;;;;;;;13.55;9.85;;;;;;;;;;5061401;28;20723;-74
2022/03/12 13:23:35;;;;;;;13.25;9.57;;;;;;;;;;5061985;28;20028;-74
2022/03/12 13:26:01;;;;;;;15.10;9.75;;;;;;;;;;5066031;28;20036;-74
2022/03/12 13:28:35;;;;;;;12.23;8.82;;;;;;;;;;5069673;28;20135;-74
2022/03/12 13:31:12;;;;;;;15.02;10.18;;;;;;;;;;5063883;28;20025;-74
2022/03/12 13:33:38;;;;;;;15.43;9.45;;;;;;;;;;5061932;28;20074;-73
2022/03/12 13:36:04;;;;;;;13.90;9.13;;;;;;;;;;5065292;28;20088;-74
2022/03/12 13:38:30;;;;;;;14.60;9.65;;;;;;;;;;5064802;28;20078;-74
2022/03/12 13:40:56;;;;;;;13.68;9.98;;;;;;;;;;5069645;28;20078;-73
2022/03/12 13:43:23;;;;;;;14.88;9.27;;;;;;;;;;5069752;28;20048;-74
2022/03/12 13:45:59;;;;;;;20.40;9.80;;;;;;;;;;5063120;28;20436;-74
2022/03/12 13:48:25;;;;;;;14.27;9.20;;;;;;;;;;5064600;28;20554;-74
2022/03/12 13:50:56;;;;;;;13.13;9.07;;;;;;;;;;5063066;28;20082;-74
2022/03/12 13:53:27;;;;;;;12.00;9.05;;;;;;;;;;5057947;28;20029;-74
2022/03/12 13:56:01;;;;;;;13.93;8.75;;;;;;;;;;5062544;28;20052;-74
2022/03/12 13:58:29;;;;;;;12.98;9.02;;;;;;;;;;5061380;28;20109;-74
2022/03/12 14:00:58;;;;;;;15.27;8.40;;;;;;;;;;5065672;28;20036;-74
2022/03/12 14:03:24;;;;;;;11.27;7.75;;;;;;;;;;5068965;28;20031;-75
2022/03/12 14:05:50;;;;;;;14.32;8.02;;;;;;;;;;5064346;28;20059;-74
2022/03/12 14:08:21;;;;;;;12.05;8.40;;;;;;;;;;5062720;28;20135;-74
2022/03/12 14:10:49;;;;;;;15.43;8.63;;;;;;;;;;5064211;28;20717;-74
2022/03/12 14:13:16;;;;;;;14.85;8.02;;;;;;;;;;5065299;28;20032;-74
2022/03/12 14:15:42;;;;;;;14.05;9.18;;;;;;;;;;5057722;28;20032;-74
2022/03/12 14:18:09;;;;;;;14.25;8.20;;;;;;;;;;5066897;28;20111;-74
2022/03/12 14:20:35;;;;;;;13.73;7.88;;;;;;;;;;5064479;28;20070;-74
2022/03/12 14:23:01;;;;;;;19.15;8.20;;;;;;;;;;5063253;28;20443;-74
2022/03/12 14:25:28;;;;;;;24.10;8.55;;;;;;;;;;5064534;28;20090;-74
2022/03/12 14:27:55;;;;;;;16.88;7.15;;;;;;;;;;5062971;28;20450;-74